createdAt,value
2018-08-10T00:01:38.830Z,99.90
2018-08-10T00:04:06.997Z,99.90
2018-08-10T00:06:35.066Z,99.90
2018-08-10T00:09:03.165Z,99.90
2018-08-10T00:11:31.541Z,99.90
2018-08-10T00:13:59.624Z,99.90
2018-08-10T00:16:27.702Z,99.90
2018-08-10T00:18:56.023Z,99.90
2018-08-10T00:21:24.030Z,99.90
2018-08-10T00:23:52.062Z,99.90
2018-08-10T00:26:20.109Z,99.90
2018-08-10T00:28:48.121Z,99.90
2018-08-10T00:31:16.531Z,99.90
2018-08-10T00:33:44.612Z,99.90
2018-08-10T00:36:12.697Z,99.90
2018-08-10T00:38:40.791Z,99.90
2018-08-10T00:41:08.865Z,99.90
2018-08-10T00:43:36.865Z,99.90
2018-08-10T00:46:04.969Z,99.90
2018-08-10T00:48:33.317Z,99.90
2018-08-10T00:51:01.406Z,99.90
2018-08-10T00:53:29.417Z,99.90
2018-08-10T00:55:57.678Z,99.90
2018-08-10T00:58:25.762Z,99.90
2018-08-10T01:00:53.758Z,99.90
2018-08-10T01:03:21.822Z,99.90
2018-08-10T01:05:49.821Z,99.90
2018-08-10T01:08:17.893Z,99.90
2018-08-10T01:10:46.070Z,99.90
2018-08-10T01:13:14.198Z,99.90
2018-08-10T01:15:42.178Z,99.90
2018-08-10T01:18:10.433Z,99.90
2018-08-10T01:20:38.477Z,99.90
2018-08-10T01:23:07.636Z,99.90
2018-08-10T01:25:35.659Z,99.90
2018-08-10T01:28:04.705Z,99.90
2018-08-10T01:30:34.129Z,99.90
2018-08-10T01:33:02.632Z,99.90
2018-08-10T01:35:31.014Z,99.90
2018-08-10T01:38:00.159Z,99.90
2018-08-10T01:40:28.197Z,99.90
2018-08-10T01:42:56.293Z,99.90
2018-08-10T01:45:24.354Z,99.90
2018-08-10T01:47:52.466Z,99.90
2018-08-10T01:50:26.922Z,99.90
2018-08-10T01:52:54.982Z,99.90
2018-08-10T01:55:23.019Z,99.90
2018-08-10T01:57:51.066Z,99.90
2018-08-10T02:00:19.138Z,99.90
2018-08-10T02:02:47.214Z,99.90
2018-08-10T02:05:15.913Z,99.90
2018-08-10T02:07:44.190Z,99.90
2018-08-10T02:10:14.161Z,99.90
2018-08-10T02:12:43.027Z,99.90
2018-08-10T02:15:13.809Z,99.90
2018-08-10T02:17:41.820Z,99.90
2018-08-10T02:20:11.790Z,99.90
2018-08-10T02:22:39.981Z,99.90
2018-08-10T02:25:09.530Z,99.90
2018-08-10T02:27:37.690Z,99.90
2018-08-10T02:30:07.207Z,99.90
2018-08-10T02:32:35.233Z,99.90
2018-08-10T02:35:03.370Z,99.90
2018-08-10T02:37:31.562Z,99.90
2018-08-10T02:39:59.641Z,99.90
2018-08-10T02:42:27.694Z,99.90
2018-08-10T02:44:55.739Z,99.90
2018-08-10T02:47:24.607Z,99.90
2018-08-10T02:49:54.153Z,99.90
2018-08-10T02:52:22.625Z,99.90
2018-08-10T02:54:50.709Z,99.90
2018-08-10T02:57:19.202Z,99.90
2018-08-10T02:59:47.234Z,99.90
2018-08-10T03:02:15.991Z,99.90
2018-08-10T03:04:44.076Z,99.90
2018-08-10T03:07:12.290Z,99.90
2018-08-10T03:09:40.651Z,99.90
2018-08-10T03:12:09.659Z,99.90
2018-08-10T03:14:38.041Z,99.90
2018-08-10T03:17:06.434Z,99.90
2018-08-10T03:19:34.523Z,99.90
2018-08-10T03:22:02.603Z,99.90
2018-08-10T03:24:30.569Z,99.90
2018-08-10T03:26:58.634Z,99.90
2018-08-10T03:29:26.634Z,99.90
2018-08-10T03:31:55.042Z,99.90
2018-08-10T03:34:23.139Z,99.90
2018-08-10T03:36:51.227Z,99.90
2018-08-10T03:39:19.304Z,99.90
2018-08-10T03:41:47.330Z,99.90
2018-08-10T03:44:15.378Z,99.90
2018-08-10T03:46:43.537Z,99.90
2018-08-10T03:49:11.542Z,99.90
2018-08-10T03:51:39.598Z,99.90
2018-08-10T03:54:07.638Z,99.90
2018-08-10T03:56:35.914Z,99.90
2018-08-10T03:59:03.910Z,99.90
2018-08-10T04:01:31.962Z,99.90
2018-08-10T04:03:59.989Z,99.90
2018-08-10T04:06:28.002Z,99.90
2018-08-10T04:08:56.339Z,99.90
2018-08-10T04:11:24.378Z,99.90
2018-08-10T04:13:52.379Z,99.90
2018-08-10T04:16:20.421Z,99.90
2018-08-10T04:18:48.454Z,99.90
2018-08-10T04:21:16.489Z,99.90
2018-08-10T04:23:44.585Z,99.90
2018-08-10T04:26:12.572Z,99.90
2018-08-10T04:28:40.606Z,99.90
2018-08-10T04:31:08.641Z,99.90
2018-08-10T04:33:36.663Z,99.90
2018-08-10T04:36:04.735Z,99.90
2018-08-10T04:38:32.804Z,99.90
2018-08-10T04:41:00.798Z,99.90
2018-08-10T04:43:28.794Z,99.90
2018-08-10T04:45:56.830Z,99.90
2018-08-10T04:48:24.846Z,99.90
2018-08-10T04:50:52.933Z,99.90
2018-08-10T04:53:20.970Z,99.90
2018-08-10T04:55:49.110Z,99.90
2018-08-10T04:58:17.426Z,99.90
2018-08-10T05:00:45.426Z,99.90
2018-08-10T05:03:13.517Z,99.90
2018-08-10T05:05:41.621Z,99.90
2018-08-10T05:08:09.633Z,99.90
2018-08-10T05:10:37.710Z,99.90
2018-08-10T05:13:05.897Z,99.90
2018-08-10T05:15:34.192Z,99.90
2018-08-10T05:18:02.178Z,99.90
2018-08-10T05:20:30.169Z,99.90
2018-08-10T05:22:58.533Z,99.90
2018-08-10T05:25:26.580Z,99.90
2018-08-10T05:27:54.605Z,99.90
2018-08-10T05:30:22.649Z,99.90
2018-08-10T05:32:50.641Z,99.90
2018-08-10T05:35:18.668Z,99.90
2018-08-10T05:37:46.666Z,99.90
2018-08-10T05:40:14.819Z,99.90
2018-08-10T05:42:42.911Z,99.90
2018-08-10T05:45:10.989Z,99.90
2018-08-10T05:47:39.034Z,99.90
2018-08-10T05:50:07.467Z,99.90
2018-08-10T05:52:35.632Z,99.90
2018-08-10T05:55:04.140Z,99.90
2018-08-10T05:57:32.307Z,99.90
2018-08-10T06:00:00.309Z,99.90
2018-08-10T06:02:28.602Z,99.80
2018-08-10T06:04:56.677Z,99.70
2018-08-10T06:07:24.771Z,99.50
2018-08-10T06:09:52.794Z,99.40
2018-08-10T06:12:20.893Z,99.40
2018-08-10T06:14:48.898Z,99.20
2018-08-10T06:17:17.213Z,99.20
2018-08-10T06:19:45.332Z,99.10
2018-08-10T06:22:13.434Z,99.20
2018-08-10T06:24:41.470Z,99.10
2018-08-10T06:27:09.549Z,99.00
2018-08-10T06:29:37.573Z,98.90
2018-08-10T06:32:05.614Z,99.10
2018-08-10T06:34:33.694Z,98.70
2018-08-10T06:37:01.781Z,98.70
2018-08-10T06:39:29.860Z,98.80
2018-08-10T06:41:57.954Z,98.70
2018-08-10T06:44:25.953Z,98.80
2018-08-10T06:46:54.019Z,98.80
2018-08-10T06:49:22.093Z,98.70
2018-08-10T06:51:50.095Z,99.10
2018-08-10T06:54:18.130Z,99.10
2018-08-10T06:56:46.162Z,98.30
2018-08-10T06:59:14.174Z,97.70
2018-08-10T07:01:42.476Z,98.20
2018-08-10T07:04:10.469Z,98.40
2018-08-10T07:06:38.483Z,98.10
2018-08-10T07:09:08.241Z,97.60
2018-08-10T07:11:36.301Z,98.20
2018-08-10T07:14:04.373Z,97.70
2018-08-10T07:16:32.773Z,97.90
2018-08-10T07:19:00.854Z,95.90
2018-08-10T07:21:30.125Z,94.20
2018-08-10T07:23:58.250Z,94.10
2018-08-10T07:26:26.441Z,93.50
2018-08-10T07:28:54.442Z,92.80
2018-08-10T07:31:22.748Z,93.30
2018-08-10T07:33:50.903Z,92.60
2018-08-10T07:36:18.982Z,92.70
2018-08-10T07:38:47.066Z,92.80
2018-08-10T07:41:15.361Z,92.90
2018-08-10T07:43:43.434Z,93.20
2018-08-10T07:46:11.438Z,92.50
2018-08-10T07:48:42.565Z,93.00
2018-08-10T07:51:11.157Z,92.80
2018-08-10T07:53:39.190Z,92.70
2018-08-10T07:56:07.473Z,92.90
2018-08-10T07:58:35.524Z,93.50
2018-08-10T08:01:03.513Z,92.70
2018-08-10T08:03:31.632Z,92.80
2018-08-10T08:06:00.100Z,92.90
2018-08-10T08:08:28.165Z,92.50
2018-08-10T08:10:56.217Z,92.70
2018-08-10T08:13:24.242Z,92.40
2018-08-10T08:15:52.321Z,93.10
2018-08-10T08:18:20.364Z,92.30
2018-08-10T08:21:07.424Z,92.60
2018-08-10T08:23:35.825Z,92.30
2018-08-10T08:26:04.521Z,92.40
2018-08-10T08:28:33.013Z,92.60
2018-08-10T08:31:02.066Z,92.10
2018-08-10T08:33:30.418Z,92.20
2018-08-10T08:35:59.350Z,92.50
2018-08-10T08:38:39.485Z,92.40
2018-08-10T08:41:08.790Z,92.80
2018-08-10T08:46:06.015Z,92.70
2018-08-10T08:48:35.506Z,92.50
2018-08-10T08:51:05.333Z,92.70
2018-08-10T08:53:33.429Z,92.10
2018-08-10T08:56:03.957Z,92.60
2018-08-10T08:58:32.562Z,92.40
2018-08-10T09:01:00.760Z,92.20
2018-08-10T09:03:40.646Z,92.10
2018-08-10T09:06:08.931Z,91.60
2018-08-10T09:08:36.977Z,91.80
2018-08-10T09:11:06.742Z,91.90
2018-08-10T09:14:53.530Z,91.30
2018-08-10T09:17:21.664Z,91.10
2018-08-10T09:19:50.023Z,90.90
2018-08-10T09:22:18.101Z,91.30
2018-08-10T09:24:46.195Z,91.40
2018-08-10T09:27:14.378Z,91.10
2018-08-10T09:29:42.439Z,90.00
2018-08-10T09:32:10.538Z,89.70
2018-08-10T09:34:38.625Z,89.00
2018-08-10T09:37:07.762Z,88.90
2018-08-10T09:39:35.757Z,90.00
2018-08-10T09:42:04.343Z,89.00
2018-08-10T09:44:32.951Z,89.00
2018-08-10T09:47:01.537Z,90.10
2018-08-10T09:49:33.028Z,88.90
2018-08-10T09:52:01.075Z,88.60
2018-08-10T09:54:29.143Z,88.30
2018-08-10T09:57:02.004Z,87.50
2018-08-10T09:59:30.316Z,88.10
2018-08-10T10:02:03.888Z,86.90
2018-08-10T10:04:32.218Z,88.00
2018-08-10T10:07:00.642Z,87.40
2018-08-10T10:09:29.011Z,88.60
2018-08-10T10:11:57.498Z,88.70
2018-08-10T10:14:25.591Z,88.50
2018-08-10T10:16:53.665Z,90.20
2018-08-10T10:19:21.885Z,89.40
2018-08-10T10:21:50.037Z,89.30
2018-08-10T10:24:18.130Z,89.00
2018-08-10T10:26:46.267Z,88.50
2018-08-10T10:29:14.388Z,87.40
2018-08-10T10:31:42.410Z,86.80
2018-08-10T10:34:11.093Z,87.20
2018-08-10T10:36:39.121Z,87.80
2018-08-10T10:39:09.293Z,86.90
2018-08-10T10:41:37.381Z,85.20
2018-08-10T10:44:05.502Z,84.70
2018-08-10T10:46:33.550Z,84.80
2018-08-10T10:49:01.937Z,85.80
2018-08-10T10:51:30.340Z,86.80
2018-08-10T10:53:58.419Z,89.20
2018-08-10T10:56:26.510Z,87.40
2018-08-10T10:58:54.477Z,88.00
2018-08-10T11:01:22.522Z,87.40
2018-08-10T11:03:50.746Z,87.80
2018-08-10T11:06:18.802Z,87.10
2018-08-10T11:08:46.773Z,86.40
2018-08-10T11:11:14.813Z,84.10
2018-08-10T11:13:42.893Z,84.80
2018-08-10T11:16:10.886Z,84.10
2018-08-10T11:18:38.955Z,83.90
2018-08-10T11:21:07.030Z,83.50
2018-08-10T11:23:35.119Z,83.00
2018-08-10T11:26:03.212Z,82.40
2018-08-10T11:28:31.202Z,83.30
2018-08-10T11:30:59.229Z,85.50
2018-08-10T11:33:27.241Z,82.70
2018-08-10T11:35:55.533Z,82.20
2018-08-10T11:38:23.626Z,80.90
2018-08-10T11:40:51.614Z,81.10
2018-08-10T11:43:20.002Z,82.70
2018-08-10T11:45:48.077Z,79.90
2018-08-10T11:48:16.090Z,79.50
2018-08-10T11:50:44.121Z,79.00
2018-08-10T11:53:12.227Z,79.70
2018-08-10T11:55:40.413Z,79.90
2018-08-10T11:58:08.519Z,78.60
2018-08-10T12:00:36.552Z,77.70
2018-08-10T12:03:04.532Z,78.10
2018-08-10T12:05:32.619Z,78.60
2018-08-10T12:08:00.690Z,77.60
2018-08-10T12:10:28.765Z,78.50
2018-08-10T12:12:57.110Z,77.50
2018-08-10T12:15:25.086Z,77.90
2018-08-10T12:17:53.101Z,76.00
2018-08-10T12:20:21.157Z,76.60
2018-08-10T12:22:49.247Z,77.50
2018-08-10T12:25:17.325Z,76.00
2018-08-10T12:27:46.802Z,74.30
2018-08-10T12:30:14.878Z,76.40
2018-08-10T12:32:42.906Z,74.50
2018-08-10T12:35:11.225Z,72.80
2018-08-10T12:37:39.338Z,73.00
2018-08-10T12:40:07.682Z,71.80
2018-08-10T12:42:35.758Z,69.10
2018-08-10T12:45:33.866Z,67.90
2018-08-10T12:48:01.865Z,69.40
2018-08-10T12:50:29.944Z,68.10
2018-08-10T12:52:57.962Z,69.80
2018-08-10T12:55:25.936Z,70.10
2018-08-10T12:57:53.970Z,67.00
2018-08-10T13:00:22.050Z,67.30
2018-08-10T13:02:50.197Z,67.60
2018-08-10T13:05:18.175Z,69.30
2018-08-10T13:07:46.177Z,69.40
2018-08-10T13:10:14.185Z,70.60
2018-08-10T13:12:42.257Z,70.10
2018-08-10T13:15:11.677Z,67.80
2018-08-10T13:17:39.725Z,68.70
2018-08-10T13:20:10.005Z,70.60
2018-08-10T13:22:38.273Z,68.90
2018-08-10T13:25:06.982Z,68.20
2018-08-10T13:27:35.214Z,68.90
2018-08-10T13:30:03.253Z,68.60
2018-08-10T13:32:31.330Z,69.60
2018-08-10T13:34:59.374Z,68.30
2018-08-10T13:37:27.422Z,69.80
2018-08-10T13:39:55.517Z,67.70
2018-08-10T13:42:23.553Z,66.60
2018-08-10T13:44:51.594Z,67.80
2018-08-10T13:47:19.606Z,67.40
2018-08-10T13:49:47.821Z,68.50
2018-08-10T13:52:16.045Z,68.70
2018-08-10T13:54:44.087Z,69.30
2018-08-10T13:57:12.085Z,65.50
2018-08-10T13:59:40.091Z,63.30
2018-08-10T14:02:09.411Z,63.20
2018-08-10T14:04:37.457Z,62.80
2018-08-10T14:07:05.615Z,61.90
2018-08-10T14:09:33.726Z,62.40
2018-08-10T14:12:01.838Z,62.50
2018-08-10T14:14:29.913Z,59.50
2018-08-10T14:16:58.128Z,61.30
2018-08-10T14:19:26.498Z,62.60
2018-08-10T14:21:54.581Z,63.20
2018-08-10T14:24:22.600Z,62.60
2018-08-10T14:26:50.650Z,61.60
2018-08-10T14:29:18.786Z,61.20
2018-08-10T14:31:46.821Z,61.30
2018-08-10T14:34:14.875Z,61.40
2018-08-10T14:36:42.868Z,61.20
2018-08-10T14:39:12.141Z,60.90
2018-08-10T14:41:40.381Z,59.20
2018-08-10T14:44:08.418Z,60.30
2018-08-10T14:46:36.897Z,60.70
2018-08-10T14:49:05.865Z,60.40
2018-08-10T14:51:33.948Z,60.20
2018-08-10T14:54:08.726Z,59.40
2018-08-10T14:56:36.734Z,60.20
2018-08-10T14:59:04.745Z,60.40
2018-08-10T15:01:32.845Z,59.70
2018-08-10T15:04:00.900Z,59.90
2018-08-10T15:06:28.925Z,59.10
2018-08-10T15:08:56.996Z,60.00
2018-08-10T15:11:25.078Z,60.40
2018-08-10T15:13:53.078Z,59.30
2018-08-10T15:16:21.241Z,59.40
2018-08-10T15:18:49.601Z,57.40
2018-08-10T15:21:17.613Z,58.20
2018-08-10T15:23:45.615Z,58.80
2018-08-10T15:26:13.685Z,58.70
2018-08-10T15:28:41.768Z,60.10
2018-08-10T15:31:09.807Z,55.60
2018-08-10T15:33:38.058Z,54.40
2018-08-10T15:36:06.288Z,51.80
2018-08-10T15:38:34.502Z,50.80
2018-08-10T15:41:02.513Z,50.40
2018-08-10T15:43:30.606Z,53.20
2018-08-10T15:45:58.617Z,54.50
2018-08-10T15:48:26.625Z,56.40
2018-08-10T15:50:54.668Z,53.90
2018-08-10T15:53:22.802Z,53.80
2018-08-10T15:55:50.915Z,51.50
2018-08-10T15:58:19.286Z,49.70
2018-08-10T16:00:47.373Z,47.50
2018-08-10T16:03:15.382Z,43.00
2018-08-10T16:05:43.441Z,42.80
2018-08-10T16:08:11.450Z,44.80
2018-08-10T16:10:39.509Z,49.40
2018-08-10T16:13:07.506Z,52.10
2018-08-10T16:15:35.882Z,52.70
2018-08-10T16:18:03.958Z,54.40
2018-08-10T16:20:32.016Z,55.10
2018-08-10T16:23:00.126Z,55.70
2018-08-10T16:25:28.825Z,54.30
2018-08-10T16:27:56.870Z,54.30
2018-08-10T16:30:25.052Z,54.40
2018-08-10T16:32:53.089Z,54.80
2018-08-10T16:35:21.470Z,50.90
2018-08-10T16:37:49.520Z,48.50
2018-08-10T16:40:18.248Z,46.70
2018-08-10T16:42:46.353Z,46.50
2018-08-10T16:45:14.734Z,43.60
2018-08-10T16:47:42.916Z,42.20
2018-08-10T16:50:14.888Z,43.40
2018-08-10T16:52:43.695Z,41.30
2018-08-10T16:55:14.685Z,40.80
2018-08-10T16:57:43.577Z,42.00
2018-08-10T17:00:15.348Z,44.60
2018-08-10T17:02:43.805Z,47.90
2018-08-10T17:05:11.902Z,48.50
2018-08-10T17:07:40.390Z,49.00
2018-08-10T17:10:08.777Z,51.40
2018-08-10T17:12:38.402Z,52.60
2018-08-10T17:15:09.646Z,51.80
2018-08-10T17:17:37.681Z,53.40
2018-08-10T17:20:05.685Z,52.20
2018-08-10T17:22:33.901Z,53.30
2018-08-10T17:25:01.971Z,52.00
2018-08-10T17:27:30.485Z,52.90
2018-08-10T17:29:58.505Z,53.90
2018-08-10T17:32:26.864Z,54.90
2018-08-10T17:34:54.942Z,54.90
2018-08-10T17:37:22.946Z,56.00
2018-08-10T17:39:51.065Z,55.70
2018-08-10T17:42:19.062Z,56.40
2018-08-10T17:44:47.097Z,56.80
2018-08-10T17:47:15.157Z,58.20
2018-08-10T17:49:43.346Z,57.20
2018-08-10T17:52:11.439Z,58.40
2018-08-10T17:54:39.476Z,61.50
2018-08-10T17:57:07.471Z,60.70
2018-08-10T17:59:35.649Z,59.90
2018-08-10T18:02:03.657Z,61.30
2018-08-10T18:04:31.749Z,59.60
2018-08-10T18:06:59.822Z,62.40
2018-08-10T18:09:27.921Z,61.10
2018-08-10T18:11:56.011Z,65.20
2018-08-10T18:14:24.377Z,66.60
2018-08-10T18:16:52.485Z,65.00
2018-08-10T18:19:20.558Z,65.60
2018-08-10T18:21:48.649Z,66.80
2018-08-10T18:24:16.680Z,70.10
2018-08-10T18:26:44.740Z,72.50
2018-08-10T18:29:13.896Z,71.20
2018-08-10T18:31:41.978Z,70.30
2018-08-10T18:34:09.990Z,70.90
2018-08-10T18:36:38.066Z,72.60
2018-08-10T18:39:11.248Z,75.50
2018-08-10T18:41:39.765Z,74.30
2018-08-10T18:44:08.052Z,77.20
2018-08-10T18:46:36.382Z,75.20
2018-08-10T18:49:04.381Z,77.40
2018-08-10T18:51:32.388Z,78.00
2018-08-10T18:54:00.489Z,80.90
2018-08-10T18:56:28.838Z,79.20
2018-08-10T18:58:57.066Z,79.20
2018-08-10T19:01:25.157Z,79.40
2018-08-10T19:03:53.187Z,78.70
2018-08-10T19:06:21.217Z,83.20
2018-08-10T19:08:49.319Z,84.80
2018-08-10T19:11:17.313Z,86.40
2018-08-10T19:13:45.446Z,88.80
2018-08-10T19:16:13.662Z,90.30
2018-08-10T19:18:41.775Z,90.50
2018-08-10T19:21:09.761Z,90.70
2018-08-10T19:23:37.797Z,91.20
2018-08-10T19:26:06.006Z,91.30
2018-08-10T19:28:34.009Z,91.80
2018-08-10T19:31:02.062Z,92.00
2018-08-10T19:33:30.114Z,92.20
2018-08-10T19:35:58.234Z,92.80
2018-08-10T19:38:26.317Z,93.50
2018-08-10T19:40:54.385Z,94.20
2018-08-10T19:43:22.481Z,95.00
2018-08-10T19:45:50.674Z,94.80
2018-08-10T19:48:18.713Z,94.70
2018-08-10T19:50:46.701Z,94.70
2018-08-10T19:53:14.921Z,96.00
2018-08-10T19:55:43.309Z,96.70
2018-08-10T19:58:11.653Z,97.40
2018-08-10T20:00:39.689Z,97.80
2018-08-10T20:03:07.982Z,98.40
2018-08-10T20:05:36.058Z,98.80
2018-08-10T20:08:04.058Z,99.30
2018-08-10T20:10:32.101Z,99.90
2018-08-10T20:13:00.133Z,99.90
2018-08-10T20:15:28.259Z,99.90
2018-08-10T20:17:56.485Z,99.90
2018-08-10T20:20:24.498Z,99.90
2018-08-10T20:22:52.549Z,99.90
2018-08-10T20:25:20.662Z,99.90
2018-08-10T20:27:48.729Z,99.90
2018-08-10T20:30:18.022Z,99.90
2018-08-10T20:32:46.676Z,99.90
2018-08-10T20:35:16.144Z,99.90
2018-08-10T20:37:44.189Z,99.90
2018-08-10T20:40:14.235Z,99.90
2018-08-10T20:42:42.337Z,99.90
2018-08-10T20:45:10.346Z,99.90
2018-08-10T20:47:38.514Z,99.90
2018-08-10T20:50:09.041Z,99.90
2018-08-10T20:52:37.137Z,99.90
2018-08-10T20:55:05.629Z,99.90
2018-08-10T20:57:33.714Z,99.90
2018-08-10T21:00:01.751Z,99.90
2018-08-10T21:02:30.105Z,99.90
2018-08-10T21:04:58.272Z,99.90
2018-08-10T21:07:26.801Z,99.90
2018-08-10T21:09:54.881Z,99.90
2018-08-10T21:12:22.886Z,99.90
2018-08-10T21:14:50.941Z,99.90
2018-08-10T21:17:19.007Z,99.90
2018-08-10T21:19:47.045Z,99.90
2018-08-10T21:22:15.278Z,99.90
2018-08-10T21:24:43.354Z,99.90
2018-08-10T21:27:11.401Z,99.90
2018-08-10T21:29:39.657Z,99.90
2018-08-10T21:32:07.914Z,99.90
2018-08-10T21:34:35.998Z,99.90
2018-08-10T21:37:04.085Z,99.90
2018-08-10T21:39:32.194Z,99.90
2018-08-10T21:42:00.222Z,99.90
2018-08-10T21:44:28.234Z,99.90
2018-08-10T21:46:56.288Z,99.90
2018-08-10T21:49:24.386Z,99.90
2018-08-10T21:51:52.391Z,99.90
2018-08-10T21:54:21.797Z,99.90
2018-08-10T21:56:49.815Z,99.90
2018-08-10T21:59:17.810Z,99.90
2018-08-10T22:01:45.848Z,99.90
2018-08-10T22:04:13.905Z,99.90
2018-08-10T22:06:41.967Z,99.90
2018-08-10T22:09:10.134Z,99.90
2018-08-10T22:11:38.170Z,99.90
2018-08-10T22:14:11.498Z,99.90
2018-08-10T22:16:45.367Z,99.90
2018-08-10T22:19:14.732Z,99.90
2018-08-10T22:21:43.626Z,99.90
2018-08-10T22:24:11.725Z,99.90
2018-08-10T22:26:40.002Z,99.90
2018-08-10T22:29:08.093Z,99.90
2018-08-10T22:31:36.184Z,99.90
2018-08-10T22:34:04.225Z,99.90
2018-08-10T22:36:32.247Z,99.90
2018-08-10T22:39:00.432Z,99.90
2018-08-10T22:41:28.817Z,99.90
2018-08-10T22:43:56.905Z,99.90
2018-08-10T22:46:25.081Z,99.90
2018-08-10T22:48:53.123Z,99.90
2018-08-10T22:51:21.253Z,99.90
2018-08-10T22:53:49.302Z,99.90
2018-08-10T22:56:17.421Z,99.90
2018-08-10T22:58:45.452Z,99.90
2018-08-10T23:01:13.481Z,99.90
2018-08-10T23:03:41.577Z,99.90
2018-08-10T23:06:10.374Z,99.90
2018-08-10T23:08:38.509Z,99.90
2018-08-10T23:11:06.394Z,99.90
2018-08-10T23:13:34.433Z,99.90
2018-08-10T23:16:02.447Z,99.90
2018-08-10T23:18:30.545Z,99.90
2018-08-10T23:20:58.579Z,99.90
2018-08-10T23:23:26.626Z,99.90
2018-08-10T23:25:54.694Z,99.90
2018-08-10T23:28:22.853Z,99.90
2018-08-10T23:30:50.905Z,99.90
2018-08-10T23:33:18.925Z,99.90
2018-08-10T23:35:46.956Z,99.90
2018-08-10T23:38:15.263Z,99.90
2018-08-10T23:40:43.358Z,99.90
2018-08-10T23:43:11.357Z,99.90
2018-08-10T23:45:39.406Z,99.90
2018-08-10T23:48:07.502Z,99.90
2018-08-10T23:50:35.567Z,99.90
2018-08-10T23:53:03.581Z,99.90
2018-08-10T23:55:31.617Z,99.90
2018-08-10T23:57:59.916Z,99.90
